sensor_id;sensor_type;location;lat;lon;timestamp;P1;durP1;ratioP1;P2;durP2;ratioP2
7383;SDS011;3733;47.994;8.820;2023-08-17T00:01:34;15.73;;;7.30;;
7383;SDS011;3733;47.994;8.820;2023-08-17T00:03:59;9.40;;;5.27;;
7383;SDS011;3733;47.994;8.820;2023-08-17T00:06:25;11.30;;;5.30;;
7383;SDS011;3733;47.994;8.820;2023-08-17T00:08:51;13.00;;;5.50;;
7383;SDS011;3733;47.994;8.820;2023-08-17T00:11:16;9.77;;;5.90;;
7383;SDS011;3733;47.994;8.820;2023-08-17T00:13:42;8.20;;;5.70;;
7383;SDS011;3733;47.994;8.820;2023-08-17T00:16:08;11.87;;;6.70;;
7383;SDS011;3733;47.994;8.820;2023-08-17T00:18:33;9.83;;;6.10;;
7383;SDS011;3733;47.994;8.820;2023-08-17T00:20:59;11.37;;;6.20;;
7383;SDS011;3733;47.994;8.820;2023-08-17T00:23:25;14.10;;;6.27;;
7383;SDS011;3733;47.994;8.820;2023-08-17T00:25:50;8.87;;;6.50;;
7383;SDS011;3733;47.994;8.820;2023-08-17T00:28:16;7.83;;;5.60;;
7383;SDS011;3733;47.994;8.820;2023-08-17T00:30:41;12.57;;;6.63;;
7383;SDS011;3733;47.994;8.820;2023-08-17T00:33:07;11.90;;;6.20;;
7383;SDS011;3733;47.994;8.820;2023-08-17T00:35:33;6.27;;;5.60;;
7383;SDS011;3733;47.994;8.820;2023-08-17T00:37:59;9.23;;;5.60;;
7383;SDS011;3733;47.994;8.820;2023-08-17T00:40:25;11.73;;;6.00;;
7383;SDS011;3733;47.994;8.820;2023-08-17T00:42:50;7.60;;;5.90;;
7383;SDS011;3733;47.994;8.820;2023-08-17T00:45:17;10.83;;;5.60;;
7383;SDS011;3733;47.994;8.820;2023-08-17T00:47:43;10.13;;;6.10;;
7383;SDS011;3733;47.994;8.820;2023-08-17T00:50:10;8.47;;;6.37;;
7383;SDS011;3733;47.994;8.820;2023-08-17T00:52:36;10.60;;;5.50;;
7383;SDS011;3733;47.994;8.820;2023-08-17T00:55:03;13.27;;;6.27;;
7383;SDS011;3733;47.994;8.820;2023-08-17T00:57:30;10.37;;;6.47;;
7383;SDS011;3733;47.994;8.820;2023-08-17T00:59:57;10.60;;;5.70;;
7383;SDS011;3733;47.994;8.820;2023-08-17T01:02:23;9.83;;;7.27;;
7383;SDS011;3733;47.994;8.820;2023-08-17T01:04:50;7.20;;;6.50;;
7383;SDS011;3733;47.994;8.820;2023-08-17T01:07:15;11.13;;;6.93;;
7383;SDS011;3733;47.994;8.820;2023-08-17T01:09:41;8.43;;;6.63;;
7383;SDS011;3733;47.994;8.820;2023-08-17T01:17:18;6.40;;;5.67;;
7383;SDS011;3733;47.994;8.820;2023-08-17T01:19:58;6.83;;;5.40;;
7383;SDS011;3733;47.994;8.820;2023-08-17T01:22:24;7.30;;;5.70;;
7383;SDS011;3733;47.994;8.820;2023-08-17T01:24:56;7.83;;;5.33;;
7383;SDS011;3733;47.994;8.820;2023-08-17T01:27:24;6.47;;;5.87;;
7383;SDS011;3733;47.994;8.820;2023-08-17T01:29:51;9.47;;;6.20;;
7383;SDS011;3733;47.994;8.820;2023-08-17T01:32:39;16.37;;;6.93;;
7383;SDS011;3733;47.994;8.820;2023-08-17T01:38:17;35.20;;;7.27;;
7383;SDS011;3733;47.994;8.820;2023-08-17T01:40:44;28.07;;;7.77;;
7383;SDS011;3733;47.994;8.820;2023-08-17T01:43:12;24.10;;;8.00;;
7383;SDS011;3733;47.994;8.820;2023-08-17T01:45:39;12.07;;;7.97;;
7383;SDS011;3733;47.994;8.820;2023-08-17T01:48:05;24.27;;;8.43;;
7383;SDS011;3733;47.994;8.820;2023-08-17T01:50:31;9.97;;;7.93;;
7383;SDS011;3733;47.994;8.820;2023-08-17T01:52:56;14.03;;;7.60;;
7383;SDS011;3733;47.994;8.820;2023-08-17T01:55:22;12.83;;;8.00;;
7383;SDS011;3733;47.994;8.820;2023-08-17T01:57:48;7.87;;;6.90;;
7383;SDS011;3733;47.994;8.820;2023-08-17T02:00:14;9.73;;;7.10;;
7383;SDS011;3733;47.994;8.820;2023-08-17T02:02:40;12.73;;;7.37;;
7383;SDS011;3733;47.994;8.820;2023-08-17T02:05:06;9.87;;;6.83;;
7383;SDS011;3733;47.994;8.820;2023-08-17T02:07:32;7.50;;;6.30;;
7383;SDS011;3733;47.994;8.820;2023-08-17T02:09:57;7.50;;;6.50;;
7383;SDS011;3733;47.994;8.820;2023-08-17T02:12:24;9.70;;;6.47;;
7383;SDS011;3733;47.994;8.820;2023-08-17T02:14:49;7.23;;;6.23;;
7383;SDS011;3733;47.994;8.820;2023-08-17T02:17:15;7.57;;;6.10;;
7383;SDS011;3733;47.994;8.820;2023-08-17T02:19:44;9.87;;;6.27;;
7383;SDS011;3733;47.994;8.820;2023-08-17T02:22:12;8.57;;;6.20;;
7383;SDS011;3733;47.994;8.820;2023-08-17T02:24:38;16.83;;;6.50;;
7383;SDS011;3733;47.994;8.820;2023-08-17T02:27:04;23.40;;;6.17;;
7383;SDS011;3733;47.994;8.820;2023-08-17T02:29:29;22.83;;;7.30;;
7383;SDS011;3733;47.994;8.820;2023-08-17T02:31:55;14.43;;;5.77;;
7383;SDS011;3733;47.994;8.820;2023-08-17T02:34:21;11.10;;;6.40;;
7383;SDS011;3733;47.994;8.820;2023-08-17T02:36:46;17.30;;;6.50;;
7383;SDS011;3733;47.994;8.820;2023-08-17T02:39:12;10.57;;;6.20;;
7383;SDS011;3733;47.994;8.820;2023-08-17T02:41:37;7.07;;;6.20;;
7383;SDS011;3733;47.994;8.820;2023-08-17T02:44:03;10.20;;;6.97;;
7383;SDS011;3733;47.994;8.820;2023-08-17T02:46:29;16.63;;;6.63;;
7383;SDS011;3733;47.994;8.820;2023-08-17T02:48:54;11.63;;;6.90;;
7383;SDS011;3733;47.994;8.820;2023-08-17T02:51:20;17.40;;;7.30;;
7383;SDS011;3733;47.994;8.820;2023-08-17T02:53:45;15.00;;;5.83;;
7383;SDS011;3733;47.994;8.820;2023-08-17T02:56:11;18.13;;;6.67;;
7383;SDS011;3733;47.994;8.820;2023-08-17T02:58:40;15.50;;;6.67;;
7383;SDS011;3733;47.994;8.820;2023-08-17T03:01:06;13.50;;;6.50;;
7383;SDS011;3733;47.994;8.820;2023-08-17T03:03:32;15.30;;;7.47;;
7383;SDS011;3733;47.994;8.820;2023-08-17T03:05:58;14.37;;;7.23;;
7383;SDS011;3733;47.994;8.820;2023-08-17T03:08:23;19.03;;;6.50;;
7383;SDS011;3733;47.994;8.820;2023-08-17T03:10:49;13.33;;;6.67;;
7383;SDS011;3733;47.994;8.820;2023-08-17T03:13:15;10.80;;;6.43;;
7383;SDS011;3733;47.994;8.820;2023-08-17T03:15:40;25.07;;;6.83;;
7383;SDS011;3733;47.994;8.820;2023-08-17T03:18:06;30.83;;;7.10;;
7383;SDS011;3733;47.994;8.820;2023-08-17T03:20:31;17.57;;;7.10;;
7383;SDS011;3733;47.994;8.820;2023-08-17T03:22:57;19.17;;;7.00;;
7383;SDS011;3733;47.994;8.820;2023-08-17T03:25:23;14.13;;;6.93;;
7383;SDS011;3733;47.994;8.820;2023-08-17T03:27:48;8.90;;;6.87;;
7383;SDS011;3733;47.994;8.820;2023-08-17T03:30:14;10.13;;;7.00;;
7383;SDS011;3733;47.994;8.820;2023-08-17T03:32:39;24.80;;;7.40;;
7383;SDS011;3733;47.994;8.820;2023-08-17T03:35:06;10.80;;;6.33;;
7383;SDS011;3733;47.994;8.820;2023-08-17T03:37:32;12.10;;;5.83;;
7383;SDS011;3733;47.994;8.820;2023-08-17T03:39:57;10.37;;;6.80;;
7383;SDS011;3733;47.994;8.820;2023-08-17T03:42:25;10.10;;;6.80;;
7383;SDS011;3733;47.994;8.820;2023-08-17T03:44:51;7.20;;;6.10;;
7383;SDS011;3733;47.994;8.820;2023-08-17T03:47:17;8.33;;;6.60;;
7383;SDS011;3733;47.994;8.820;2023-08-17T03:49:43;8.50;;;7.17;;
7383;SDS011;3733;47.994;8.820;2023-08-17T03:52:09;14.43;;;7.57;;
7383;SDS011;3733;47.994;8.820;2023-08-17T03:54:35;10.73;;;6.80;;
7383;SDS011;3733;47.994;8.820;2023-08-17T03:57:01;19.73;;;6.53;;
7383;SDS011;3733;47.994;8.820;2023-08-17T03:59:27;19.33;;;6.20;;
7383;SDS011;3733;47.994;8.820;2023-08-17T04:01:52;16.50;;;5.97;;
7383;SDS011;3733;47.994;8.820;2023-08-17T04:04:18;11.23;;;6.30;;
7383;SDS011;3733;47.994;8.820;2023-08-17T04:06:44;8.13;;;6.27;;
7383;SDS011;3733;47.994;8.820;2023-08-17T04:09:09;7.10;;;5.70;;
7383;SDS011;3733;47.994;8.820;2023-08-17T04:11:35;8.50;;;5.93;;
7383;SDS011;3733;47.994;8.820;2023-08-17T04:14:04;7.90;;;6.47;;
7383;SDS011;3733;47.994;8.820;2023-08-17T04:16:30;7.97;;;6.47;;
7383;SDS011;3733;47.994;8.820;2023-08-17T04:18:55;7.40;;;6.20;;
7383;SDS011;3733;47.994;8.820;2023-08-17T04:21:21;9.40;;;6.87;;
7383;SDS011;3733;47.994;8.820;2023-08-17T04:23:46;13.70;;;6.90;;
7383;SDS011;3733;47.994;8.820;2023-08-17T04:26:12;10.37;;;7.33;;
7383;SDS011;3733;47.994;8.820;2023-08-17T04:28:38;11.37;;;6.93;;
7383;SDS011;3733;47.994;8.820;2023-08-17T04:31:04;14.60;;;6.83;;
7383;SDS011;3733;47.994;8.820;2023-08-17T04:33:29;28.73;;;6.57;;
7383;SDS011;3733;47.994;8.820;2023-08-17T04:35:55;13.90;;;6.90;;
7383;SDS011;3733;47.994;8.820;2023-08-17T04:38:21;10.23;;;5.30;;
7383;SDS011;3733;47.994;8.820;2023-08-17T04:40:46;10.47;;;6.57;;
7383;SDS011;3733;47.994;8.820;2023-08-17T04:43:12;11.47;;;6.83;;
7383;SDS011;3733;47.994;8.820;2023-08-17T04:45:38;14.33;;;6.80;;
7383;SDS011;3733;47.994;8.820;2023-08-17T04:48:04;11.17;;;6.57;;
7383;SDS011;3733;47.994;8.820;2023-08-17T04:50:31;15.10;;;6.57;;
7383;SDS011;3733;47.994;8.820;2023-08-17T04:52:57;38.07;;;7.37;;
7383;SDS011;3733;47.994;8.820;2023-08-17T04:55:23;26.37;;;7.40;;
7383;SDS011;3733;47.994;8.820;2023-08-17T04:57:48;13.70;;;6.27;;
7383;SDS011;3733;47.994;8.820;2023-08-17T05:00:14;7.83;;;6.30;;
7383;SDS011;3733;47.994;8.820;2023-08-17T05:02:40;7.97;;;7.00;;
7383;SDS011;3733;47.994;8.820;2023-08-17T05:05:06;8.47;;;7.20;;
7383;SDS011;3733;47.994;8.820;2023-08-17T05:07:34;11.10;;;7.10;;
7383;SDS011;3733;47.994;8.820;2023-08-17T05:10:00;11.30;;;7.63;;
7383;SDS011;3733;47.994;8.820;2023-08-17T05:12:26;16.83;;;7.53;;
7383;SDS011;3733;47.994;8.820;2023-08-17T05:14:51;17.60;;;6.90;;
7383;SDS011;3733;47.994;8.820;2023-08-17T05:17:17;18.50;;;7.37;;
7383;SDS011;3733;47.994;8.820;2023-08-17T05:19:43;16.50;;;6.53;;
7383;SDS011;3733;47.994;8.820;2023-08-17T05:22:10;13.13;;;7.37;;
7383;SDS011;3733;47.994;8.820;2023-08-17T05:24:37;24.03;;;6.73;;
7383;SDS011;3733;47.994;8.820;2023-08-17T05:27:03;28.03;;;6.70;;
7383;SDS011;3733;47.994;8.820;2023-08-17T05:29:29;12.00;;;6.90;;
7383;SDS011;3733;47.994;8.820;2023-08-17T05:31:57;56.80;;;8.30;;
7383;SDS011;3733;47.994;8.820;2023-08-17T05:34:23;33.43;;;6.63;;
7383;SDS011;3733;47.994;8.820;2023-08-17T05:36:48;7.63;;;6.60;;
7383;SDS011;3733;47.994;8.820;2023-08-17T05:39:14;6.97;;;6.27;;
7383;SDS011;3733;47.994;8.820;2023-08-17T05:41:39;9.27;;;6.90;;
7383;SDS011;3733;47.994;8.820;2023-08-17T05:44:05;20.10;;;5.70;;
7383;SDS011;3733;47.994;8.820;2023-08-17T05:46:32;7.23;;;5.00;;
7383;SDS011;3733;47.994;8.820;2023-08-17T05:48:58;7.50;;;6.10;;
7383;SDS011;3733;47.994;8.820;2023-08-17T05:51:24;7.00;;;6.30;;
7383;SDS011;3733;47.994;8.820;2023-08-17T05:53:49;8.17;;;6.47;;
7383;SDS011;3733;47.994;8.820;2023-08-17T05:56:15;7.40;;;6.43;;
7383;SDS011;3733;47.994;8.820;2023-08-17T05:58:41;8.90;;;6.50;;
7383;SDS011;3733;47.994;8.820;2023-08-17T06:01:07;7.60;;;6.33;;
7383;SDS011;3733;47.994;8.820;2023-08-17T06:03:37;9.60;;;6.33;;
7383;SDS011;3733;47.994;8.820;2023-08-17T06:06:05;8.67;;;6.00;;
7383;SDS011;3733;47.994;8.820;2023-08-17T06:08:31;6.70;;;6.00;;
7383;SDS011;3733;47.994;8.820;2023-08-17T06:10:57;8.47;;;6.87;;
7383;SDS011;3733;47.994;8.820;2023-08-17T06:13:22;10.13;;;6.50;;
7383;SDS011;3733;47.994;8.820;2023-08-17T06:15:48;6.47;;;5.83;;
7383;SDS011;3733;47.994;8.820;2023-08-17T06:18:14;8.23;;;6.80;;
7383;SDS011;3733;47.994;8.820;2023-08-17T06:20:40;8.03;;;5.87;;
7383;SDS011;3733;47.994;8.820;2023-08-17T06:23:06;8.60;;;6.20;;
7383;SDS011;3733;47.994;8.820;2023-08-17T06:25:31;11.93;;;6.20;;
7383;SDS011;3733;47.994;8.820;2023-08-17T06:27:57;13.60;;;6.47;;
7383;SDS011;3733;47.994;8.820;2023-08-17T06:30:23;10.07;;;6.63;;
7383;SDS011;3733;47.994;8.820;2023-08-17T06:32:51;7.50;;;6.60;;
7383;SDS011;3733;47.994;8.820;2023-08-17T06:35:17;7.90;;;6.30;;
7383;SDS011;3733;47.994;8.820;2023-08-17T06:37:43;7.87;;;6.83;;
7383;SDS011;3733;47.994;8.820;2023-08-17T06:40:08;9.07;;;6.57;;
7383;SDS011;3733;47.994;8.820;2023-08-17T06:42:34;12.63;;;6.30;;
7383;SDS011;3733;47.994;8.820;2023-08-17T06:45:00;7.07;;;6.27;;
7383;SDS011;3733;47.994;8.820;2023-08-17T06:47:26;7.20;;;5.83;;
7383;SDS011;3733;47.994;8.820;2023-08-17T06:49:52;7.50;;;6.63;;
7383;SDS011;3733;47.994;8.820;2023-08-17T06:52:17;8.13;;;6.47;;
7383;SDS011;3733;47.994;8.820;2023-08-17T06:54:43;10.10;;;7.00;;
7383;SDS011;3733;47.994;8.820;2023-08-17T06:57:08;9.37;;;6.83;;
7383;SDS011;3733;47.994;8.820;2023-08-17T06:59:34;11.10;;;7.80;;
7383;SDS011;3733;47.994;8.820;2023-08-17T07:02:00;8.90;;;7.30;;
7383;SDS011;3733;47.994;8.820;2023-08-17T07:04:25;8.37;;;6.30;;
7383;SDS011;3733;47.994;8.820;2023-08-17T07:06:51;6.60;;;6.00;;
7383;SDS011;3733;47.994;8.820;2023-08-17T07:09:17;7.00;;;6.30;;
7383;SDS011;3733;47.994;8.820;2023-08-17T07:11:43;7.60;;;6.40;;
7383;SDS011;3733;47.994;8.820;2023-08-17T07:14:09;7.40;;;6.33;;
7383;SDS011;3733;47.994;8.820;2023-08-17T07:16:34;7.70;;;6.60;;
7383;SDS011;3733;47.994;8.820;2023-08-17T07:19:00;8.20;;;7.30;;
7383;SDS011;3733;47.994;8.820;2023-08-17T07:21:26;9.17;;;7.50;;
7383;SDS011;3733;47.994;8.820;2023-08-17T07:23:54;6.70;;;6.00;;
7383;SDS011;3733;47.994;8.820;2023-08-17T07:26:20;9.17;;;7.17;;
7383;SDS011;3733;47.994;8.820;2023-08-17T07:28:47;7.60;;;6.30;;
7383;SDS011;3733;47.994;8.820;2023-08-17T07:31:13;13.40;;;6.93;;
7383;SDS011;3733;47.994;8.820;2023-08-17T07:33:39;11.23;;;7.00;;
7383;SDS011;3733;47.994;8.820;2023-08-17T07:36:05;8.43;;;6.20;;
7383;SDS011;3733;47.994;8.820;2023-08-17T07:38:31;12.37;;;7.43;;
7383;SDS011;3733;47.994;8.820;2023-08-17T07:40:56;8.07;;;6.53;;
7383;SDS011;3733;47.994;8.820;2023-08-17T07:43:22;9.73;;;7.17;;
7383;SDS011;3733;47.994;8.820;2023-08-17T07:45:55;10.50;;;7.00;;
7383;SDS011;3733;47.994;8.820;2023-08-17T07:48:21;7.20;;;6.50;;
7383;SDS011;3733;47.994;8.820;2023-08-17T07:50:53;12.73;;;7.50;;
7383;SDS011;3733;47.994;8.820;2023-08-17T07:53:18;10.23;;;7.13;;
7383;SDS011;3733;47.994;8.820;2023-08-17T07:55:45;13.53;;;7.00;;
7383;SDS011;3733;47.994;8.820;2023-08-17T07:58:11;8.27;;;7.47;;
7383;SDS011;3733;47.994;8.820;2023-08-17T08:00:36;8.87;;;7.50;;
7383;SDS011;3733;47.994;8.820;2023-08-17T08:03:03;7.73;;;6.93;;
7383;SDS011;3733;47.994;8.820;2023-08-17T08:05:28;10.50;;;8.67;;
7383;SDS011;3733;47.994;8.820;2023-08-17T08:07:54;20.50;;;8.00;;
7383;SDS011;3733;47.994;8.820;2023-08-17T08:10:20;10.20;;;7.97;;
7383;SDS011;3733;47.994;8.820;2023-08-17T08:12:45;9.50;;;7.13;;
7383;SDS011;3733;47.994;8.820;2023-08-17T08:15:11;9.67;;;7.47;;
7383;SDS011;3733;47.994;8.820;2023-08-17T08:17:36;10.00;;;7.10;;
7383;SDS011;3733;47.994;8.820;2023-08-17T08:20:02;11.13;;;7.10;;
7383;SDS011;3733;47.994;8.820;2023-08-17T08:22:29;13.87;;;7.33;;
7383;SDS011;3733;47.994;8.820;2023-08-17T08:24:54;10.20;;;7.70;;
7383;SDS011;3733;47.994;8.820;2023-08-17T08:27:20;9.63;;;7.90;;
7383;SDS011;3733;47.994;8.820;2023-08-17T08:29:46;11.70;;;8.23;;
7383;SDS011;3733;47.994;8.820;2023-08-17T08:32:11;13.57;;;7.90;;
7383;SDS011;3733;47.994;8.820;2023-08-17T08:34:37;8.87;;;6.87;;
7383;SDS011;3733;47.994;8.820;2023-08-17T08:37:03;12.67;;;7.27;;
7383;SDS011;3733;47.994;8.820;2023-08-17T08:39:28;11.87;;;7.40;;
7383;SDS011;3733;47.994;8.820;2023-08-17T08:41:54;13.33;;;7.47;;
7383;SDS011;3733;47.994;8.820;2023-08-17T08:44:20;8.37;;;7.10;;
7383;SDS011;3733;47.994;8.820;2023-08-17T08:46:46;13.60;;;7.43;;
7383;SDS011;3733;47.994;8.820;2023-08-17T08:49:13;9.00;;;6.80;;
7383;SDS011;3733;47.994;8.820;2023-08-17T08:51:45;9.80;;;7.03;;
7383;SDS011;3733;47.994;8.820;2023-08-17T08:54:14;10.93;;;7.43;;
7383;SDS011;3733;47.994;8.820;2023-08-17T08:56:45;9.03;;;6.93;;
7383;SDS011;3733;47.994;8.820;2023-08-17T08:59:13;10.07;;;7.37;;
7383;SDS011;3733;47.994;8.820;2023-08-17T09:01:39;10.60;;;7.57;;
7383;SDS011;3733;47.994;8.820;2023-08-17T09:04:06;8.90;;;6.80;;
7383;SDS011;3733;47.994;8.820;2023-08-17T09:06:32;9.27;;;6.53;;
7383;SDS011;3733;47.994;8.820;2023-08-17T09:08:58;10.67;;;7.10;;
7383;SDS011;3733;47.994;8.820;2023-08-17T09:11:27;10.13;;;6.83;;
7383;SDS011;3733;47.994;8.820;2023-08-17T09:13:53;15.70;;;7.13;;
7383;SDS011;3733;47.994;8.820;2023-08-17T09:16:19;11.63;;;7.60;;
7383;SDS011;3733;47.994;8.820;2023-08-17T09:18:45;9.40;;;6.20;;
7383;SDS011;3733;47.994;8.820;2023-08-17T09:21:19;9.17;;;6.70;;
7383;SDS011;3733;47.994;8.820;2023-08-17T09:23:52;8.57;;;6.20;;
7383;SDS011;3733;47.994;8.820;2023-08-17T09:26:19;10.63;;;6.67;;
7383;SDS011;3733;47.994;8.820;2023-08-17T09:28:49;17.63;;;7.50;;
7383;SDS011;3733;47.994;8.820;2023-08-17T09:31:15;21.33;;;6.90;;
7383;SDS011;3733;47.994;8.820;2023-08-17T09:33:41;12.17;;;7.33;;
7383;SDS011;3733;47.994;8.820;2023-08-17T09:36:06;11.13;;;7.80;;
7383;SDS011;3733;47.994;8.820;2023-08-17T09:38:37;13.23;;;7.20;;
7383;SDS011;3733;47.994;8.820;2023-08-17T09:41:03;17.33;;;6.80;;
7383;SDS011;3733;47.994;8.820;2023-08-17T09:43:30;27.13;;;7.50;;
7383;SDS011;3733;47.994;8.820;2023-08-17T09:45:58;9.77;;;6.70;;
7383;SDS011;3733;47.994;8.820;2023-08-17T09:48:27;13.60;;;7.33;;
7383;SDS011;3733;47.994;8.820;2023-08-17T09:50:53;11.63;;;6.87;;
7383;SDS011;3733;47.994;8.820;2023-08-17T09:53:22;19.10;;;7.17;;
7383;SDS011;3733;47.994;8.820;2023-08-17T09:55:47;18.03;;;7.20;;
7383;SDS011;3733;47.994;8.820;2023-08-17T09:58:13;14.03;;;7.10;;
7383;SDS011;3733;47.994;8.820;2023-08-17T10:00:43;15.40;;;6.87;;
7383;SDS011;3733;47.994;8.820;2023-08-17T10:03:14;11.40;;;6.37;;
7383;SDS011;3733;47.994;8.820;2023-08-17T10:05:42;10.27;;;6.33;;
7383;SDS011;3733;47.994;8.820;2023-08-17T10:08:10;9.43;;;5.73;;
7383;SDS011;3733;47.994;8.820;2023-08-17T10:10:38;10.83;;;6.20;;
7383;SDS011;3733;47.994;8.820;2023-08-17T10:13:20;8.80;;;6.37;;
7383;SDS011;3733;47.994;8.820;2023-08-17T10:16:23;10.50;;;5.80;;
7383;SDS011;3733;47.994;8.820;2023-08-17T10:21:32;8.97;;;5.33;;
7383;SDS011;3733;47.994;8.820;2023-08-17T10:24:09;11.83;;;5.37;;
7383;SDS011;3733;47.994;8.820;2023-08-17T10:26:36;18.20;;;5.90;;
7383;SDS011;3733;47.994;8.820;2023-08-17T10:29:02;13.50;;;6.70;;
7383;SDS011;3733;47.994;8.820;2023-08-17T10:31:29;12.43;;;5.43;;
7383;SDS011;3733;47.994;8.820;2023-08-17T10:33:55;10.30;;;5.73;;
7383;SDS011;3733;47.994;8.820;2023-08-17T10:36:22;11.60;;;5.70;;
7383;SDS011;3733;47.994;8.820;2023-08-17T10:39:17;8.97;;;4.87;;
7383;SDS011;3733;47.994;8.820;2023-08-17T10:41:49;9.73;;;4.90;;
7383;SDS011;3733;47.994;8.820;2023-08-17T10:50:20;11.63;;;4.30;;
7383;SDS011;3733;47.994;8.820;2023-08-17T10:52:48;7.65;;;5.10;;
7383;SDS011;3733;47.994;8.820;2023-08-17T10:55:15;7.30;;;5.15;;
7383;SDS011;3733;47.994;8.820;2023-08-17T10:57:42;6.22;;;5.15;;
7383;SDS011;3733;47.994;8.820;2023-08-17T11:02:52;7.00;;;5.00;;
7383;SDS011;3733;47.994;8.820;2023-08-17T11:10:48;7.30;;;4.80;;
7383;SDS011;3733;47.994;8.820;2023-08-17T11:13:39;8.68;;;4.65;;
7383;SDS011;3733;47.994;8.820;2023-08-17T11:16:06;5.82;;;5.00;;
7383;SDS011;3733;47.994;8.820;2023-08-17T11:18:34;5.20;;;4.70;;
7383;SDS011;3733;47.994;8.820;2023-08-17T11:21:01;6.50;;;4.97;;
7383;SDS011;3733;47.994;8.820;2023-08-17T11:23:28;6.05;;;5.55;;
7383;SDS011;3733;47.994;8.820;2023-08-17T11:25:55;8.70;;;5.07;;
7383;SDS011;3733;47.994;8.820;2023-08-17T11:28:22;5.78;;;5.03;;
7383;SDS011;3733;47.994;8.820;2023-08-17T11:30:58;7.03;;;5.47;;
7383;SDS011;3733;47.994;8.820;2023-08-17T11:33:25;7.47;;;5.45;;
7383;SDS011;3733;47.994;8.820;2023-08-17T11:35:53;8.13;;;5.32;;
7383;SDS011;3733;47.994;8.820;2023-08-17T11:38:26;8.05;;;5.45;;
7383;SDS011;3733;47.994;8.820;2023-08-17T11:40:55;6.20;;;4.90;;
7383;SDS011;3733;47.994;8.820;2023-08-17T11:43:22;6.78;;;4.35;;
7383;SDS011;3733;47.994;8.820;2023-08-17T11:45:48;9.27;;;5.22;;
7383;SDS011;3733;47.994;8.820;2023-08-17T11:48:14;10.30;;;5.45;;
7383;SDS011;3733;47.994;8.820;2023-08-17T11:50:42;8.67;;;4.97;;
7383;SDS011;3733;47.994;8.820;2023-08-17T11:53:07;12.17;;;5.73;;
7383;SDS011;3733;47.994;8.820;2023-08-17T11:55:33;11.03;;;5.00;;
7383;SDS011;3733;47.994;8.820;2023-08-17T11:57:59;9.57;;;4.90;;
7383;SDS011;3733;47.994;8.820;2023-08-17T12:00:26;20.63;;;5.50;;
7383;SDS011;3733;47.994;8.820;2023-08-17T12:02:52;5.00;;;4.10;;
7383;SDS011;3733;47.994;8.820;2023-08-17T12:05:21;10.03;;;5.20;;
7383;SDS011;3733;47.994;8.820;2023-08-17T12:07:52;9.03;;;5.13;;
7383;SDS011;3733;47.994;8.820;2023-08-17T12:10:19;14.57;;;5.50;;
7383;SDS011;3733;47.994;8.820;2023-08-17T12:12:48;7.57;;;5.30;;
7383;SDS011;3733;47.994;8.820;2023-08-17T12:15:15;8.57;;;6.00;;
7383;SDS011;3733;47.994;8.820;2023-08-17T12:17:48;12.60;;;6.30;;
7383;SDS011;3733;47.994;8.820;2023-08-17T12:20:18;15.40;;;6.10;;
7383;SDS011;3733;47.994;8.820;2023-08-17T12:22:45;22.57;;;7.83;;
7383;SDS011;3733;47.994;8.820;2023-08-17T12:25:12;16.13;;;9.10;;
7383;SDS011;3733;47.994;8.820;2023-08-17T12:27:37;15.00;;;7.93;;
7383;SDS011;3733;47.994;8.820;2023-08-17T12:30:04;17.23;;;8.67;;
7383;SDS011;3733;47.994;8.820;2023-08-17T12:32:36;22.07;;;7.43;;
7383;SDS011;3733;47.994;8.820;2023-08-17T12:35:02;19.57;;;7.80;;
7383;SDS011;3733;47.994;8.820;2023-08-17T12:37:28;19.10;;;8.47;;
7383;SDS011;3733;47.994;8.820;2023-08-17T12:39:54;17.47;;;9.03;;
7383;SDS011;3733;47.994;8.820;2023-08-17T12:42:20;20.07;;;9.10;;
7383;SDS011;3733;47.994;8.820;2023-08-17T12:44:45;16.80;;;7.83;;
7383;SDS011;3733;47.994;8.820;2023-08-17T12:47:11;13.97;;;7.43;;
7383;SDS011;3733;47.994;8.820;2023-08-17T12:49:36;13.20;;;6.50;;
7383;SDS011;3733;47.994;8.820;2023-08-17T12:52:02;12.10;;;6.77;;
7383;SDS011;3733;47.994;8.820;2023-08-17T12:54:28;14.80;;;7.10;;
7383;SDS011;3733;47.994;8.820;2023-08-17T12:56:53;17.00;;;7.30;;
7383;SDS011;3733;47.994;8.820;2023-08-17T12:59:19;14.23;;;7.27;;
7383;SDS011;3733;47.994;8.820;2023-08-17T13:01:45;11.10;;;6.80;;
7383;SDS011;3733;47.994;8.820;2023-08-17T13:04:10;13.10;;;7.57;;
7383;SDS011;3733;47.994;8.820;2023-08-17T13:06:36;10.17;;;6.53;;
7383;SDS011;3733;47.994;8.820;2023-08-17T13:09:01;10.17;;;6.87;;
7383;SDS011;3733;47.994;8.820;2023-08-17T13:11:27;12.43;;;7.47;;
7383;SDS011;3733;47.994;8.820;2023-08-17T13:13:53;16.33;;;8.00;;
7383;SDS011;3733;47.994;8.820;2023-08-17T13:16:18;13.60;;;7.97;;
7383;SDS011;3733;47.994;8.820;2023-08-17T13:18:44;14.03;;;7.63;;
7383;SDS011;3733;47.994;8.820;2023-08-17T13:21:09;13.10;;;7.93;;
7383;SDS011;3733;47.994;8.820;2023-08-17T13:23:35;13.03;;;7.37;;
7383;SDS011;3733;47.994;8.820;2023-08-17T13:26:01;15.17;;;8.60;;
7383;SDS011;3733;47.994;8.820;2023-08-17T13:28:26;11.20;;;8.93;;
7383;SDS011;3733;47.994;8.820;2023-08-17T13:30:52;13.70;;;8.50;;
7383;SDS011;3733;47.994;8.820;2023-08-17T13:33:18;11.77;;;8.83;;
7383;SDS011;3733;47.994;8.820;2023-08-17T13:35:43;15.60;;;8.93;;
7383;SDS011;3733;47.994;8.820;2023-08-17T13:38:09;17.63;;;10.37;;
7383;SDS011;3733;47.994;8.820;2023-08-17T13:40:35;18.97;;;9.63;;
7383;SDS011;3733;47.994;8.820;2023-08-17T13:43:01;22.27;;;9.60;;
7383;SDS011;3733;47.994;8.820;2023-08-17T13:45:28;22.60;;;9.63;;
7383;SDS011;3733;47.994;8.820;2023-08-17T13:47:54;12.60;;;8.87;;
7383;SDS011;3733;47.994;8.820;2023-08-17T13:50:19;11.10;;;9.23;;
7383;SDS011;3733;47.994;8.820;2023-08-17T13:52:45;15.20;;;8.47;;
7383;SDS011;3733;47.994;8.820;2023-08-17T13:55:11;13.17;;;9.00;;
7383;SDS011;3733;47.994;8.820;2023-08-17T13:57:37;12.40;;;8.70;;
7383;SDS011;3733;47.994;8.820;2023-08-17T14:00:03;13.20;;;8.30;;
7383;SDS011;3733;47.994;8.820;2023-08-17T14:02:29;13.77;;;7.87;;
7383;SDS011;3733;47.994;8.820;2023-08-17T14:04:55;21.50;;;9.57;;
7383;SDS011;3733;47.994;8.820;2023-08-17T14:07:20;22.17;;;9.30;;
7383;SDS011;3733;47.994;8.820;2023-08-17T14:09:46;13.73;;;9.33;;
7383;SDS011;3733;47.994;8.820;2023-08-17T14:12:12;19.67;;;10.10;;
7383;SDS011;3733;47.994;8.820;2023-08-17T14:14:37;18.13;;;10.10;;
7383;SDS011;3733;47.994;8.820;2023-08-17T14:17:03;17.17;;;10.00;;
7383;SDS011;3733;47.994;8.820;2023-08-17T14:19:28;15.07;;;9.03;;
7383;SDS011;3733;47.994;8.820;2023-08-17T14:21:54;11.60;;;9.57;;
7383;SDS011;3733;47.994;8.820;2023-08-17T14:24:20;13.43;;;10.03;;
7383;SDS011;3733;47.994;8.820;2023-08-17T14:26:45;13.63;;;9.00;;
7383;SDS011;3733;47.994;8.820;2023-08-17T14:29:11;13.87;;;9.57;;
7383;SDS011;3733;47.994;8.820;2023-08-17T14:31:36;16.73;;;10.10;;
7383;SDS011;3733;47.994;8.820;2023-08-17T14:34:02;13.57;;;9.43;;
7383;SDS011;3733;47.994;8.820;2023-08-17T14:36:28;12.57;;;9.90;;
7383;SDS011;3733;47.994;8.820;2023-08-17T14:38:53;12.17;;;9.43;;
7383;SDS011;3733;47.994;8.820;2023-08-17T14:41:19;10.43;;;9.03;;
7383;SDS011;3733;47.994;8.820;2023-08-17T14:43:44;10.70;;;9.13;;
7383;SDS011;3733;47.994;8.820;2023-08-17T14:46:10;12.40;;;9.90;;
7383;SDS011;3733;47.994;8.820;2023-08-17T14:48:36;11.50;;;9.30;;
7383;SDS011;3733;47.994;8.820;2023-08-17T14:51:02;12.03;;;8.70;;
7383;SDS011;3733;47.994;8.820;2023-08-17T14:53:28;12.83;;;8.87;;
7383;SDS011;3733;47.994;8.820;2023-08-17T14:55:53;12.57;;;9.80;;
7383;SDS011;3733;47.994;8.820;2023-08-17T14:58:20;13.87;;;8.97;;
7383;SDS011;3733;47.994;8.820;2023-08-17T15:00:46;12.13;;;8.40;;
7383;SDS011;3733;47.994;8.820;2023-08-17T15:03:12;14.93;;;9.60;;
7383;SDS011;3733;47.994;8.820;2023-08-17T15:05:37;9.03;;;7.67;;
7383;SDS011;3733;47.994;8.820;2023-08-17T15:08:03;13.60;;;9.00;;
7383;SDS011;3733;47.994;8.820;2023-08-17T15:10:29;11.13;;;8.17;;
7383;SDS011;3733;47.994;8.820;2023-08-17T15:12:54;12.70;;;8.03;;
7383;SDS011;3733;47.994;8.820;2023-08-17T15:15:20;13.30;;;8.40;;
7383;SDS011;3733;47.994;8.820;2023-08-17T15:17:46;18.00;;;8.83;;
7383;SDS011;3733;47.994;8.820;2023-08-17T15:20:11;9.40;;;8.50;;
7383;SDS011;3733;47.994;8.820;2023-08-17T15:22:37;12.30;;;8.80;;
7383;SDS011;3733;47.994;8.820;2023-08-17T15:25:03;10.00;;;8.63;;
7383;SDS011;3733;47.994;8.820;2023-08-17T15:27:29;10.77;;;8.37;;